createdAt,value
2022-10-11T00:01:20.452Z,5.40
2022-10-11T00:06:24.507Z,4.77
2022-10-11T00:11:17.166Z,5.20
2022-10-11T00:16:11.369Z,5.23
2022-10-11T00:21:07.291Z,5.40
2022-10-11T00:26:05.574Z,5.00
2022-10-11T00:30:58.438Z,5.20
2022-10-11T00:35:51.264Z,5.33
2022-10-11T00:40:44.637Z,4.80
2022-10-11T00:45:37.125Z,4.23
2022-10-11T00:50:37.909Z,5.03
2022-10-11T00:55:34.230Z,3.93
2022-10-11T01:00:26.721Z,4.97
2022-10-11T01:05:33.709Z,5.10
2022-10-11T01:10:27.386Z,4.47
2022-10-11T01:15:23.785Z,4.13
2022-10-11T01:20:28.663Z,5.17
2022-10-11T01:25:39.710Z,4.50
2022-10-11T01:30:34.704Z,4.53
2022-10-11T01:35:39.229Z,4.53
2022-10-11T01:40:39.858Z,4.60
2022-10-11T01:45:34.961Z,4.20
2022-10-11T01:50:47.908Z,4.73
2022-10-11T01:56:15.988Z,4.70
2022-10-11T02:01:23.345Z,4.40
2022-10-11T02:06:32.936Z,5.67
2022-10-11T02:11:29.390Z,4.57
2022-10-11T02:16:27.445Z,4.90
2022-10-11T02:21:23.837Z,5.43
2022-10-11T02:26:17.825Z,6.20
2022-10-11T02:31:12.233Z,5.27
2022-10-11T02:36:12.356Z,5.40
2022-10-11T02:41:19.239Z,5.30
2022-10-11T02:46:13.033Z,5.40
2022-10-11T02:51:05.682Z,5.47
2022-10-11T02:55:58.074Z,5.13
2022-10-11T03:00:50.777Z,5.30
2022-10-11T03:05:44.185Z,4.33
2022-10-11T03:10:37.571Z,4.43
2022-10-11T03:15:31.031Z,3.77
2022-10-11T03:20:24.202Z,3.40
2022-10-11T03:25:17.545Z,2.83
2022-10-11T03:30:14.121Z,2.20
2022-10-11T03:35:08.893Z,2.43
2022-10-11T03:40:01.533Z,1.80
2022-10-11T03:44:54.108Z,1.83
2022-10-11T03:49:46.487Z,1.50
2022-10-11T03:54:39.814Z,1.80
2022-10-11T03:59:37.555Z,1.23
2022-10-11T04:04:30.010Z,1.70
2022-10-11T04:09:26.433Z,1.40
2022-10-11T04:14:18.878Z,1.43
2022-10-11T04:19:11.286Z,1.40
2022-10-11T04:24:03.752Z,1.73
2022-10-11T04:28:56.168Z,1.63
2022-10-11T04:33:48.652Z,1.30
2022-10-11T04:38:41.007Z,1.73
2022-10-11T04:43:33.833Z,15.20
2022-10-11T04:48:50.645Z,6.33
2022-10-11T04:53:43.325Z,4.20
2022-10-11T04:58:36.116Z,2.53
2022-10-11T05:03:31.980Z,1.73
2022-10-11T05:08:24.957Z,1.30
2022-10-11T05:13:17.337Z,1.57
2022-10-11T05:18:09.972Z,2.90
2022-10-11T05:23:02.484Z,4.10
2022-10-11T05:27:57.367Z,4.40
2022-10-11T05:32:51.233Z,3.53
2022-10-11T05:37:47.648Z,2.60
2022-10-11T05:43:03.996Z,2.43
2022-10-11T05:48:09.876Z,2.80
2022-10-11T06:00:33.642Z,2.50
2022-10-11T06:05:45.625Z,2.37
2022-10-11T06:10:40.230Z,3.17
2022-10-11T06:15:40.942Z,2.10
2022-10-11T06:26:58.605Z,2.43
2022-10-11T06:31:52.351Z,2.80
2022-10-11T06:36:45.194Z,2.67
2022-10-11T06:47:02.465Z,2.63
2022-10-11T06:52:14.263Z,2.80
2022-10-11T06:57:07.116Z,2.60
2022-10-11T07:02:03.472Z,2.63
2022-10-11T07:07:04.037Z,2.20
2022-10-11T07:19:42.549Z,3.50
2022-10-11T07:25:30.424Z,2.20
2022-10-11T07:30:27.401Z,2.67
2022-10-11T07:35:21.479Z,2.60
2022-10-11T07:41:05.664Z,2.87
2022-10-11T07:46:01.490Z,2.83
2022-10-11T07:51:03.551Z,2.40
2022-10-11T07:55:59.525Z,3.10
2022-10-11T08:01:10.133Z,2.17
2022-10-11T08:06:31.673Z,2.07
2022-10-11T08:11:36.265Z,2.97
2022-10-11T08:16:49.673Z,3.00
2022-10-11T08:21:42.655Z,2.80
2022-10-11T08:26:35.860Z,2.57
2022-10-11T08:31:28.677Z,2.70
2022-10-11T08:36:22.493Z,2.63
2022-10-11T08:41:38.164Z,3.43
2022-10-11T08:46:35.420Z,2.87
2022-10-11T08:51:36.451Z,2.17
2022-10-11T08:56:37.534Z,2.50
2022-10-11T09:01:32.840Z,3.23
2022-10-11T09:06:47.206Z,2.63
2022-10-11T09:17:47.424Z,2.13
2022-10-11T09:23:20.954Z,2.20
2022-10-11T09:28:32.545Z,2.07
2022-10-11T09:33:49.110Z,2.00
2022-10-11T09:39:06.751Z,2.10
2022-10-11T09:43:59.365Z,2.30
2022-10-11T09:48:52.567Z,2.30
2022-10-11T09:54:00.882Z,1.70
2022-10-11T09:59:28.523Z,2.13
2022-10-11T10:04:21.035Z,1.65
2022-10-11T10:09:34.134Z,2.17
2022-10-11T10:19:56.215Z,1.80
2022-10-11T10:24:56.792Z,1.83
2022-10-11T10:30:10.041Z,1.75
2022-10-11T10:35:14.569Z,2.22
2022-10-11T10:40:15.501Z,2.07
2022-10-11T10:45:20.085Z,1.77
2022-10-11T10:50:22.319Z,1.40
2022-10-11T10:55:33.688Z,2.30
2022-10-11T11:00:29.481Z,1.75
2022-10-11T11:12:03.069Z,1.92
2022-10-11T11:17:15.955Z,1.57
2022-10-11T11:22:43.262Z,2.70
2022-10-11T11:28:14.145Z,2.03
2022-10-11T11:33:39.519Z,1.43
2022-10-11T11:38:55.929Z,2.23
2022-10-11T11:44:12.209Z,1.47
2022-10-11T11:49:50.411Z,2.20
2022-10-11T11:55:09.962Z,1.37
2022-10-11T12:00:21.323Z,1.80
2022-10-11T12:05:31.836Z,1.63
2022-10-11T12:10:37.784Z,2.00
2022-10-11T12:27:14.199Z,1.40
2022-10-11T12:32:07.057Z,1.77
2022-10-11T12:37:04.434Z,1.27
2022-10-11T12:42:20.793Z,1.87
2022-10-11T12:47:39.762Z,1.37
2022-10-11T12:52:57.330Z,4.70
2022-10-11T12:58:32.125Z,1.37
2022-10-11T13:03:32.743Z,1.70
2022-10-11T13:08:27.893Z,1.70
2022-10-11T13:13:29.059Z,1.63
2022-10-11T13:18:24.140Z,1.13
2022-10-11T13:23:29.609Z,1.10
2022-10-11T13:28:23.687Z,1.50
2022-10-11T13:33:35.557Z,1.20
2022-10-11T13:51:35.859Z,1.10
2022-10-11T13:56:33.975Z,1.30
2022-10-11T14:01:40.419Z,1.40
2022-10-11T14:06:59.559Z,1.70
2022-10-11T14:12:14.178Z,1.87
2022-10-11T14:17:19.737Z,2.37
2022-10-11T14:22:18.987Z,2.00
2022-10-11T14:27:20.432Z,2.10
2022-10-11T14:32:17.316Z,1.50
2022-10-11T14:37:12.564Z,2.00
2022-10-11T14:42:06.529Z,1.97
2022-10-11T14:47:02.215Z,1.77
2022-10-11T14:51:57.348Z,5.13
2022-10-11T14:56:52.980Z,2.27
2022-10-11T15:01:46.979Z,1.50
2022-10-11T15:06:43.894Z,1.43
2022-10-11T15:11:40.699Z,1.63
2022-10-11T15:16:36.691Z,2.60
2022-10-11T15:21:30.033Z,2.00
2022-10-11T15:31:57.470Z,1.63
2022-10-11T15:36:50.191Z,1.50
2022-10-11T15:41:42.993Z,1.60
2022-10-11T15:46:35.376Z,1.63
2022-10-11T15:51:34.315Z,1.73
2022-10-11T16:01:28.867Z,7.20
2022-10-11T16:06:22.931Z,2.97
2022-10-11T16:11:15.395Z,2.40
2022-10-11T16:16:09.822Z,1.77
2022-10-11T16:21:08.798Z,1.70
2022-10-11T16:26:05.749Z,2.47
2022-10-11T16:30:58.768Z,2.07
2022-10-11T16:35:52.725Z,2.57
2022-10-11T16:40:45.266Z,2.77
2022-10-11T16:45:38.132Z,3.03
2022-10-11T16:50:33.316Z,3.00
2022-10-11T16:55:29.123Z,3.47
2022-10-11T17:05:58.487Z,4.70
2022-10-11T17:10:58.066Z,3.93
2022-10-11T17:15:53.193Z,3.87
2022-10-11T17:21:03.610Z,3.40
2022-10-11T17:25:58.195Z,3.60
2022-10-11T17:31:01.162Z,3.30
2022-10-11T17:36:01.905Z,3.33
2022-10-11T17:41:18.648Z,2.90
2022-10-11T17:46:17.734Z,4.10
2022-10-11T17:51:25.763Z,4.60
2022-10-11T17:56:33.708Z,3.83
2022-10-11T18:01:35.532Z,4.30
2022-10-11T18:06:45.480Z,4.57
2022-10-11T18:11:42.073Z,11.90
2022-10-11T18:16:44.504Z,36.77
2022-10-11T18:21:48.613Z,18.30
2022-10-11T18:26:43.946Z,14.47
2022-10-11T18:31:44.386Z,9.60
2022-10-11T18:36:53.226Z,5.23
2022-10-11T18:41:48.622Z,6.70
2022-10-11T18:51:52.775Z,5.43
2022-10-11T18:56:45.682Z,5.20
2022-10-11T19:01:41.801Z,4.97
2022-10-11T19:06:38.755Z,5.47
2022-10-11T19:11:32.001Z,5.27
2022-10-11T19:16:27.747Z,4.77
2022-10-11T19:21:21.685Z,9.77
2022-10-11T19:26:29.584Z,11.93
2022-10-11T19:31:22.407Z,10.40
2022-10-11T19:36:22.206Z,9.97
2022-10-11T19:41:18.524Z,17.50
2022-10-11T19:46:38.026Z,7.03
2022-10-11T19:51:38.549Z,4.20
2022-10-11T20:02:07.756Z,4.13
2022-10-11T20:07:00.399Z,4.43
2022-10-11T20:11:52.943Z,4.33
2022-10-11T20:16:53.267Z,4.50
2022-10-11T20:21:46.590Z,4.30
2022-10-11T20:26:39.550Z,4.63
2022-10-11T20:31:40.919Z,4.93
2022-10-11T20:37:05.793Z,4.73
2022-10-11T20:41:58.409Z,4.23
2022-10-11T20:46:51.045Z,5.03
2022-10-11T20:51:44.453Z,4.60
2022-10-11T20:56:37.343Z,5.57
2022-10-11T21:01:35.073Z,5.27
2022-10-11T21:06:28.546Z,5.70
2022-10-11T21:11:21.119Z,5.67
2022-10-11T21:16:17.427Z,5.73
2022-10-11T21:21:12.751Z,4.43
2022-10-11T21:26:09.017Z,5.43
2022-10-11T21:31:07.750Z,5.10
2022-10-11T21:36:34.122Z,5.17
2022-10-11T21:41:32.610Z,4.93
2022-10-11T22:09:14.094Z,4.70
2022-10-11T22:19:15.002Z,4.90
2022-10-11T22:24:07.675Z,4.93
2022-10-11T22:29:13.765Z,4.87
2022-10-11T22:39:14.079Z,4.93
2022-10-11T22:44:07.506Z,4.90
2022-10-11T22:49:01.531Z,4.53
2022-10-11T22:59:12.919Z,4.07
2022-10-11T23:33:18.741Z,7.03
2022-10-11T23:38:11.458Z,4.90
